Time;durP1;ratioP1;P1;durP2;ratioP2;P2;SDS_P1;SDS_P2;PMS_P1;PMS_P2;Temp;Humidity;BMP_temperature;BMP_pressure;BME280_temperature;BME280_humidity;BME280_pressure;Samples;Min_cycle;Max_cycle;Signal;HPM_P1;HPM_P2
2021/12/03 00:01:01;;;;;;;17.23;9.30;;;;;;;;;;5097124;28;20455;-71
2021/12/03 00:03:28;;;;;;;18.47;11.37;;;;;;;;;;5096625;28;20489;-71
2021/12/03 00:05:58;;;;;;;13.83;8.97;;;;;;;;;;5096603;28;20454;-71
2021/12/03 00:08:26;;;;;;;16.43;9.83;;;;;;;;;;5096881;28;20455;-71
2021/12/03 00:10:56;;;;;;;25.60;9.20;;;;;;;;;;5096954;28;20966;-71
2021/12/03 00:13:23;;;;;;;15.07;10.17;;;;;;;;;;5096895;28;20542;-71
2021/12/03 00:15:51;;;;;;;12.43;8.00;;;;;;;;;;5097002;28;20455;-71
2021/12/03 00:18:18;;;;;;;12.17;8.70;;;;;;;;;;5096743;28;20463;-71
2021/12/03 00:20:46;;;;;;;14.97;9.60;;;;;;;;;;5096391;28;20466;-71
2021/12/03 00:23:15;;;;;;;21.23;9.50;;;;;;;;;;5096382;28;20492;-71
2021/12/03 00:25:42;;;;;;;15.03;10.20;;;;;;;;;;5096310;28;20472;-71
2021/12/03 00:28:09;;;;;;;17.03;10.50;;;;;;;;;;5096577;28;20943;-71
2021/12/03 00:30:37;;;;;;;14.37;10.30;;;;;;;;;;5096741;28;20446;-71
2021/12/03 00:33:05;;;;;;;16.90;9.83;;;;;;;;;;5097155;28;20454;-71
2021/12/03 00:35:32;;;;;;;16.53;10.20;;;;;;;;;;5096176;28;20457;-71
2021/12/03 00:38:00;;;;;;;16.07;10.63;;;;;;;;;;5096452;28;20455;-71
2021/12/03 00:40:30;;;;;;;15.13;8.40;;;;;;;;;;5096298;28;20454;-71
2021/12/03 00:42:57;;;;;;;20.17;10.90;;;;;;;;;;5096235;28;20517;-71
2021/12/03 00:45:24;;;;;;;15.70;10.43;;;;;;;;;;5096178;28;20892;-71
2021/12/03 00:47:52;;;;;;;18.23;10.53;;;;;;;;;;5096110;28;20446;-71
2021/12/03 00:50:21;;;;;;;17.00;10.07;;;;;;;;;;5096132;28;20790;-71
2021/12/03 00:52:48;;;;;;;19.37;11.77;;;;;;;;;;5096045;28;20451;-71
2021/12/03 00:55:16;;;;;;;16.10;10.83;;;;;;;;;;5095766;28;20454;-71
2021/12/03 00:57:45;;;;;;;14.53;9.10;;;;;;;;;;5095958;28;20453;-71
2021/12/03 01:00:14;;;;;;;14.50;9.17;;;;;;;;;;5095984;28;20450;-71
2021/12/03 01:02:41;;;;;;;15.10;10.40;;;;;;;;;;5095566;28;20487;-71
2021/12/03 01:05:08;;;;;;;15.07;9.90;;;;;;;;;;5095998;28;20451;-71
2021/12/03 01:07:36;;;;;;;13.53;9.23;;;;;;;;;;5095953;28;20454;-71
2021/12/03 01:10:03;;;;;;;19.00;9.40;;;;;;;;;;5095353;28;20457;-71
2021/12/03 01:12:30;;;;;;;14.20;9.03;;;;;;;;;;5095815;28;20454;-71
2021/12/03 01:14:59;;;;;;;17.03;9.50;;;;;;;;;;5095758;28;20478;-71
2021/12/03 01:17:26;;;;;;;15.10;8.43;;;;;;;;;;5095755;28;20447;-71
2021/12/03 01:19:53;;;;;;;14.27;9.43;;;;;;;;;;5095558;28;20486;-71
2021/12/03 01:22:20;;;;;;;16.70;9.10;;;;;;;;;;5095575;28;20478;-71
2021/12/03 01:24:48;;;;;;;16.73;8.37;;;;;;;;;;5095584;28;20458;-71
2021/12/03 01:27:15;;;;;;;13.93;8.97;;;;;;;;;;5095530;28;20458;-71
2021/12/03 01:29:42;;;;;;;16.73;10.20;;;;;;;;;;5095468;28;20458;-71
2021/12/03 01:32:11;;;;;;;14.97;8.87;;;;;;;;;;5095399;28;20458;-71
2021/12/03 01:34:38;;;;;;;13.43;9.17;;;;;;;;;;5095307;28;20478;-71
2021/12/03 01:37:05;;;;;;;16.77;9.10;;;;;;;;;;5095346;28;20455;-71
2021/12/03 01:39:32;;;;;;;19.43;8.90;;;;;;;;;;5095229;28;20456;-71
2021/12/03 01:41:59;;;;;;;16.73;9.97;;;;;;;;;;5094895;28;20447;-71
2021/12/03 01:44:26;;;;;;;16.30;9.07;;;;;;;;;;5095167;28;20443;-71
2021/12/03 01:46:54;;;;;;;11.83;8.07;;;;;;;;;;5095179;28;20455;-71
2021/12/03 01:49:23;;;;;;;19.07;11.13;;;;;;;;;;5095098;28;20451;-71
2021/12/03 01:51:50;;;;;;;15.73;9.20;;;;;;;;;;5095059;28;20439;-71
2021/12/03 01:54:17;;;;;;;14.50;8.97;;;;;;;;;;5094626;28;20450;-71
2021/12/03 01:56:44;;;;;;;17.20;9.60;;;;;;;;;;5095016;28;20822;-71
2021/12/03 01:59:11;;;;;;;18.80;10.53;;;;;;;;;;5094540;28;20455;-71
2021/12/03 02:01:38;;;;;;;13.70;9.20;;;;;;;;;;5094780;28;20821;-71
2021/12/03 02:04:05;;;;;;;23.47;9.30;;;;;;;;;;5094437;28;20486;-71
2021/12/03 02:06:34;;;;;;;18.13;9.47;;;;;;;;;;5094788;28;20451;-71
2021/12/03 02:09:02;;;;;;;25.10;11.47;;;;;;;;;;5094733;28;20944;-71
2021/12/03 02:11:29;;;;;;;15.37;8.70;;;;;;;;;;5094645;28;20966;-71
2021/12/03 02:13:56;;;;;;;17.43;10.07;;;;;;;;;;5094580;28;20954;-71
2021/12/03 02:16:24;;;;;;;15.90;8.90;;;;;;;;;;5094590;28;20455;-71
2021/12/03 02:18:51;;;;;;;16.23;8.00;;;;;;;;;;5094486;28;20457;-71
2021/12/03 02:21:20;;;;;;;12.60;7.50;;;;;;;;;;5093735;28;20466;-71
2021/12/03 02:23:48;;;;;;;14.10;8.13;;;;;;;;;;5094361;28;20577;-71
2021/12/03 02:26:15;;;;;;;17.63;9.70;;;;;;;;;;5094360;28;20451;-71
2021/12/03 02:28:44;;;;;;;14.70;7.80;;;;;;;;;;5094366;28;20454;-71
2021/12/03 02:31:12;;;;;;;15.03;8.17;;;;;;;;;;5094256;28;20465;-71
2021/12/03 02:33:39;;;;;;;12.67;7.93;;;;;;;;;;5094285;28;20855;-71
2021/12/03 02:36:07;;;;;;;16.30;6.33;;;;;;;;;;5094213;28;20450;-71
2021/12/03 02:38:35;;;;;;;11.40;6.70;;;;;;;;;;5094269;28;20458;-71
2021/12/03 02:41:03;;;;;;;13.73;7.57;;;;;;;;;;5093845;28;20529;-71
2021/12/03 02:43:31;;;;;;;15.43;7.80;;;;;;;;;;5093726;28;20490;-71
2021/12/03 02:45:58;;;;;;;7.93;5.60;;;;;;;;;;5094129;28;20815;-71
2021/12/03 02:48:25;;;;;;;12.80;7.07;;;;;;;;;;5094030;28;20961;-71
2021/12/03 02:50:53;;;;;;;13.30;6.57;;;;;;;;;;5093696;28;20455;-71
2021/12/03 02:53:20;;;;;;;15.10;7.63;;;;;;;;;;5093650;28;20451;-71
2021/12/03 02:55:49;;;;;;;16.30;8.20;;;;;;;;;;5093664;28;20499;-71
2021/12/03 02:58:16;;;;;;;14.03;7.43;;;;;;;;;;5093952;28;20902;-71
2021/12/03 03:00:44;;;;;;;17.07;7.90;;;;;;;;;;5093894;28;20477;-71
2021/12/03 03:03:11;;;;;;;14.13;7.17;;;;;;;;;;5093773;28;20487;-71
2021/12/03 03:05:38;;;;;;;19.00;7.57;;;;;;;;;;5093831;28;20457;-71
2021/12/03 03:08:05;;;;;;;10.83;7.63;;;;;;;;;;5093821;28;20792;-71
2021/12/03 03:10:40;;;;;;;8.43;6.50;;;;;;;;;;5093753;28;20944;-71
2021/12/03 03:13:08;;;;;;;13.60;7.57;;;;;;;;;;5093724;28;20925;-71
2021/12/03 03:15:38;;;;;;;14.63;7.80;;;;;;;;;;5093362;28;20455;-71
2021/12/03 03:18:11;;;;;;;19.13;7.40;;;;;;;;;;5093898;28;20462;-71
2021/12/03 03:20:38;;;;;;;16.23;8.30;;;;;;;;;;5093679;28;20489;-71
2021/12/03 03:23:06;;;;;;;21.27;9.13;;;;;;;;;;5093430;28;21026;-71
2021/12/03 03:25:33;;;;;;;13.83;7.90;;;;;;;;;;5093416;28;20451;-71
2021/12/03 03:28:00;;;;;;;16.00;8.87;;;;;;;;;;5093657;28;20457;-71
2021/12/03 03:30:29;;;;;;;16.30;9.00;;;;;;;;;;5093159;28;20455;-71
2021/12/03 03:32:56;;;;;;;14.67;8.30;;;;;;;;;;5094944;28;20450;-71
2021/12/03 03:35:23;;;;;;;13.93;8.23;;;;;;;;;;5097749;28;20449;-71
2021/12/03 03:37:50;;;;;;;15.20;6.93;;;;;;;;;;5097613;28;20455;-71
2021/12/03 03:40:18;;;;;;;19.30;8.70;;;;;;;;;;5097573;28;20451;-71
2021/12/03 03:42:45;;;;;;;15.87;8.50;;;;;;;;;;5097440;28;20454;-71
2021/12/03 03:45:14;;;;;;;13.87;7.97;;;;;;;;;;5097490;28;20451;-71
2021/12/03 03:47:42;;;;;;;23.00;9.77;;;;;;;;;;5097711;28;20482;-71
2021/12/03 03:50:11;;;;;;;14.93;9.17;;;;;;;;;;5096996;28;20451;-71
2021/12/03 03:52:39;;;;;;;14.93;8.83;;;;;;;;;;5097315;28;20958;-71
2021/12/03 03:55:07;;;;;;;16.03;8.00;;;;;;;;;;5097011;28;20461;-73
2021/12/03 03:57:34;;;;;;;14.30;9.60;;;;;;;;;;5097352;28;20443;-71
2021/12/03 04:00:01;;;;;;;15.33;8.13;;;;;;;;;;5097128;28;20808;-71
2021/12/03 04:02:28;;;;;;;15.60;9.70;;;;;;;;;;5096843;28;20454;-71
2021/12/03 04:04:57;;;;;;;14.97;8.33;;;;;;;;;;5097032;28;20485;-71
2021/12/03 04:07:24;;;;;;;16.17;9.30;;;;;;;;;;5097384;28;20450;-71
2021/12/03 04:09:51;;;;;;;17.70;8.80;;;;;;;;;;5097002;28;20465;-71
2021/12/03 04:12:18;;;;;;;17.53;8.13;;;;;;;;;;5096977;28;20451;-71
2021/12/03 04:14:45;;;;;;;13.23;7.80;;;;;;;;;;5096635;28;20447;-71
2021/12/03 04:17:12;;;;;;;18.13;9.37;;;;;;;;;;5096900;28;20460;-71
2021/12/03 04:19:40;;;;;;;13.60;8.10;;;;;;;;;;5096418;28;20462;-71
2021/12/03 04:22:08;;;;;;;15.50;8.53;;;;;;;;;;5096755;28;20889;-71
2021/12/03 04:24:35;;;;;;;15.60;8.90;;;;;;;;;;5096327;28;20479;-71
2021/12/03 04:27:02;;;;;;;17.57;8.90;;;;;;;;;;5096321;28;20455;-71
2021/12/03 04:29:29;;;;;;;20.47;8.83;;;;;;;;;;5096696;28;20454;-71
2021/12/03 04:31:56;;;;;;;15.67;8.37;;;;;;;;;;5096608;28;20430;-71
2021/12/03 04:34:24;;;;;;;16.47;9.17;;;;;;;;;;5096631;28;20849;-71
2021/12/03 04:36:51;;;;;;;16.30;9.10;;;;;;;;;;5096462;28;20554;-71
2021/12/03 04:39:20;;;;;;;19.27;10.33;;;;;;;;;;5096443;28;20461;-71
2021/12/03 04:41:47;;;;;;;16.97;10.30;;;;;;;;;;5096360;28;20943;-71
2021/12/03 04:44:14;;;;;;;16.70;8.53;;;;;;;;;;5095438;28;20489;-71
2021/12/03 04:46:41;;;;;;;16.90;9.67;;;;;;;;;;5096260;28;20454;-71
2021/12/03 04:49:08;;;;;;;19.10;9.77;;;;;;;;;;5095964;28;20447;-71
2021/12/03 04:51:35;;;;;;;11.63;7.60;;;;;;;;;;5096238;28;20790;-71
2021/12/03 04:54:02;;;;;;;19.07;9.47;;;;;;;;;;5096516;28;20442;-71
2021/12/03 04:56:31;;;;;;;14.40;9.20;;;;;;;;;;5096181;28;20954;-71
2021/12/03 04:58:58;;;;;;;19.80;9.20;;;;;;;;;;5096076;28;20451;-71
2021/12/03 05:01:25;;;;;;;15.10;8.77;;;;;;;;;;5095699;28;20483;-71
2021/12/03 05:03:52;;;;;;;14.97;7.63;;;;;;;;;;5096005;28;20482;-71
2021/12/03 05:06:29;;;;;;;17.87;9.33;;;;;;;;;;5096014;28;20939;-71
2021/12/03 05:08:56;;;;;;;15.13;9.10;;;;;;;;;;5096011;28;20926;-71
2021/12/03 05:11:23;;;;;;;14.63;8.70;;;;;;;;;;5095811;28;20459;-71
2021/12/03 05:13:52;;;;;;;21.10;9.00;;;;;;;;;;5095846;28;21046;-71
2021/12/03 05:16:19;;;;;;;19.47;9.83;;;;;;;;;;5095757;28;20927;-71
2021/12/03 05:18:48;;;;;;;20.70;10.77;;;;;;;;;;5095794;28;20473;-71
2021/12/03 05:21:15;;;;;;;21.97;11.00;;;;;;;;;;5095365;28;20474;-71
2021/12/03 05:23:42;;;;;;;20.20;10.90;;;;;;;;;;5095208;28;20482;-71
2021/12/03 05:26:09;;;;;;;23.97;11.03;;;;;;;;;;5095577;28;20814;-71
2021/12/03 05:28:36;;;;;;;15.43;8.90;;;;;;;;;;5095201;28;20477;-71
2021/12/03 05:31:05;;;;;;;21.50;11.90;;;;;;;;;;5095231;28;20458;-71
2021/12/03 05:33:32;;;;;;;18.00;10.33;;;;;;;;;;5095146;28;20442;-71
2021/12/03 05:35:59;;;;;;;14.70;10.20;;;;;;;;;;5095065;28;20458;-71
2021/12/03 05:38:26;;;;;;;20.13;11.23;;;;;;;;;;5095364;28;20808;-71
2021/12/03 05:40:53;;;;;;;16.00;9.83;;;;;;;;;;5095315;28;20818;-71
2021/12/03 05:43:20;;;;;;;18.73;8.83;;;;;;;;;;5095158;28;20457;-71
2021/12/03 05:45:48;;;;;;;17.90;9.93;;;;;;;;;;5094867;28;20454;-71
2021/12/03 05:48:17;;;;;;;20.67;11.43;;;;;;;;;;5095261;28;20446;-71
2021/12/03 05:50:45;;;;;;;23.37;10.87;;;;;;;;;;5094762;28;20458;-71
2021/12/03 05:53:12;;;;;;;15.77;8.43;;;;;;;;;;5095040;28;20909;-71
2021/12/03 05:55:39;;;;;;;22.37;11.17;;;;;;;;;;5093797;28;20440;-71
2021/12/03 05:58:06;;;;;;;11.47;8.70;;;;;;;;;;5094931;28;20477;-71
2021/12/03 06:00:35;;;;;;;13.47;9.43;;;;;;;;;;5094805;28;20461;-71
2021/12/03 06:03:03;;;;;;;20.50;10.60;;;;;;;;;;5094536;28;20462;-71
2021/12/03 06:05:32;;;;;;;21.37;11.00;;;;;;;;;;5094417;28;20478;-71
2021/12/03 06:07:59;;;;;;;22.40;10.50;;;;;;;;;;5094736;28;20457;-71
2021/12/03 06:10:26;;;;;;;16.40;9.97;;;;;;;;;;5094402;28;20492;-71
2021/12/03 06:12:54;;;;;;;15.33;9.20;;;;;;;;;;5094689;28;20813;-71
2021/12/03 06:15:22;;;;;;;18.13;11.40;;;;;;;;;;5094624;28;20823;-71
2021/12/03 06:17:52;;;;;;;17.37;10.43;;;;;;;;;;5095439;28;20959;-71
2021/12/03 06:20:20;;;;;;;17.47;9.60;;;;;;;;;;5094082;28;20462;-71
2021/12/03 06:22:49;;;;;;;18.10;10.83;;;;;;;;;;5094409;28;20827;-71
2021/12/03 06:25:16;;;;;;;19.53;11.07;;;;;;;;;;5094302;28;20482;-71
2021/12/03 06:27:43;;;;;;;17.93;10.80;;;;;;;;;;5094389;28;20447;-71
2021/12/03 06:30:12;;;;;;;17.60;10.77;;;;;;;;;;5094276;28;20461;-71
2021/12/03 06:32:39;;;;;;;17.30;9.03;;;;;;;;;;5094268;28;20453;-71
2021/12/03 06:35:07;;;;;;;17.73;8.93;;;;;;;;;;5094173;28;20447;-71
2021/12/03 06:37:34;;;;;;;15.73;9.37;;;;;;;;;;5094144;28;20454;-71
2021/12/03 06:40:03;;;;;;;15.50;8.77;;;;;;;;;;5094197;28;20462;-71
2021/12/03 06:42:31;;;;;;;15.37;8.30;;;;;;;;;;5094148;28;20948;-71
2021/12/03 06:44:58;;;;;;;16.90;9.97;;;;;;;;;;5094006;28;20987;-71
2021/12/03 06:47:25;;;;;;;18.30;10.87;;;;;;;;;;5094074;28;20442;-71
2021/12/03 06:49:52;;;;;;;19.43;9.67;;;;;;;;;;5094038;28;20451;-71
2021/12/03 06:52:19;;;;;;;17.00;10.37;;;;;;;;;;5093985;28;20451;-71
2021/12/03 06:54:54;;;;;;;21.73;10.87;;;;;;;;;;5093989;28;20928;-71
2021/12/03 06:57:22;;;;;;;17.73;9.10;;;;;;;;;;5093977;28;20438;-71
2021/12/03 06:59:50;;;;;;;19.43;9.63;;;;;;;;;;5093901;28;20828;-71
2021/12/03 07:02:17;;;;;;;16.47;10.93;;;;;;;;;;5093887;28;20470;-71
2021/12/03 07:04:44;;;;;;;15.20;8.80;;;;;;;;;;5093466;28;20486;-71
2021/12/03 07:07:11;;;;;;;14.97;9.37;;;;;;;;;;5093571;28;20482;-71
2021/12/03 07:09:39;;;;;;;16.77;10.80;;;;;;;;;;5093447;28;20449;-71
2021/12/03 07:12:07;;;;;;;15.90;8.30;;;;;;;;;;5093419;28;20462;-71
2021/12/03 07:14:35;;;;;;;16.07;10.00;;;;;;;;;;5093705;28;20819;-71
2021/12/03 07:17:06;;;;;;;16.63;9.57;;;;;;;;;;5093645;28;20451;-71
2021/12/03 07:19:33;;;;;;;14.33;9.63;;;;;;;;;;5094100;28;20475;-71
2021/12/03 07:22:00;;;;;;;14.67;10.30;;;;;;;;;;5093343;28;20450;-71
2021/12/03 07:24:27;;;;;;;19.70;11.90;;;;;;;;;;5093492;28;21018;-71
2021/12/03 07:26:54;;;;;;;13.90;8.97;;;;;;;;;;5093550;28;20823;-71
2021/12/03 07:29:21;;;;;;;15.03;8.63;;;;;;;;;;5093550;28;20454;-71
2021/12/03 07:31:49;;;;;;;15.00;9.07;;;;;;;;;;5093860;28;20438;-70
2021/12/03 07:34:17;;;;;;;18.10;9.37;;;;;;;;;;5093506;28;20439;-71
2021/12/03 07:36:44;;;;;;;13.67;7.80;;;;;;;;;;5093484;28;20473;-71
2021/12/03 07:39:11;;;;;;;12.77;8.57;;;;;;;;;;5093149;28;20462;-71
2021/12/03 07:41:40;;;;;;;10.47;7.33;;;;;;;;;;5093243;28;20513;-71
2021/12/03 07:44:08;;;;;;;13.67;8.60;;;;;;;;;;5093351;28;20454;-71
2021/12/03 07:46:35;;;;;;;14.57;8.87;;;;;;;;;;5093094;28;20470;-71
2021/12/03 07:49:04;;;;;;;19.47;10.67;;;;;;;;;;5093355;28;20454;-72
2021/12/03 07:51:31;;;;;;;12.57;7.20;;;;;;;;;;5093375;28;20435;-71
2021/12/03 07:53:58;;;;;;;17.30;8.10;;;;;;;;;;5093336;28;20816;-71
2021/12/03 07:56:25;;;;;;;13.93;8.47;;;;;;;;;;5093293;28;20455;-71
2021/12/03 07:58:52;;;;;;;13.83;8.73;;;;;;;;;;5092993;28;20458;-71
2021/12/03 08:01:19;;;;;;;13.83;8.50;;;;;;;;;;5093271;28;20939;-71
2021/12/03 08:03:47;;;;;;;15.40;10.40;;;;;;;;;;5092688;28;20451;-71
2021/12/03 08:06:15;;;;;;;17.83;10.17;;;;;;;;;;5093143;28;20568;-71
2021/12/03 08:08:42;;;;;;;15.30;8.77;;;;;;;;;;5094190;28;20497;-71
2021/12/03 08:11:09;;;;;;;14.40;8.07;;;;;;;;;;5093118;28;20447;-71
2021/12/03 08:13:37;;;;;;;11.13;7.50;;;;;;;;;;5093168;28;20458;-71
2021/12/03 08:16:05;;;;;;;12.90;6.97;;;;;;;;;;5093108;28;20453;-71
2021/12/03 08:18:32;;;;;;;12.77;8.20;;;;;;;;;;5093399;28;20455;-71
2021/12/03 08:21:00;;;;;;;18.73;8.13;;;;;;;;;;5096791;28;20480;-71
2021/12/03 08:23:28;;;;;;;13.70;7.57;;;;;;;;;;5096861;28;20962;-71
2021/12/03 08:25:55;;;;;;;16.00;8.17;;;;;;;;;;5096748;28;21010;-71
2021/12/03 08:28:22;;;;;;;13.33;7.80;;;;;;;;;;5096803;28;20821;-71
2021/12/03 08:30:50;;;;;;;15.80;7.43;;;;;;;;;;5096255;28;20447;-71
2021/12/03 08:33:17;;;;;;;15.43;7.77;;;;;;;;;;5096238;28;20450;-71
2021/12/03 08:35:44;;;;;;;11.17;7.70;;;;;;;;;;5096216;28;20453;-71
2021/12/03 08:38:11;;;;;;;11.77;7.03;;;;;;;;;;5096221;28;20450;-71
2021/12/03 08:40:39;;;;;;;10.47;7.17;;;;;;;;;;5096732;28;20837;-71
2021/12/03 08:43:07;;;;;;;9.63;6.50;;;;;;;;;;5096417;28;20455;-71
2021/12/03 08:45:36;;;;;;;12.47;7.80;;;;;;;;;;5096058;28;20478;-71
2021/12/03 08:48:05;;;;;;;10.80;6.90;;;;;;;;;;5096315;28;20493;-71
2021/12/03 08:50:35;;;;;;;11.37;6.40;;;;;;;;;;5095936;28;20446;-71
2021/12/03 08:53:19;;;;;;;14.43;6.77;;;;;;;;;;5096243;28;20446;-71
2021/12/03 08:55:47;;;;;;;10.87;6.90;;;;;;;;;;5096204;28;20769;-72
2021/12/03 08:58:16;;;;;;;10.03;7.03;;;;;;;;;;5095828;28;20862;-71
2021/12/03 09:00:44;;;;;;;8.73;6.50;;;;;;;;;;5096164;28;20455;-72
2021/12/03 09:03:11;;;;;;;10.00;7.20;;;;;;;;;;5096322;28;20504;-72
2021/12/03 09:05:39;;;;;;;12.70;7.07;;;;;;;;;;5094838;28;20486;-71
2021/12/03 09:08:06;;;;;;;13.20;6.47;;;;;;;;;;5094092;28;20471;-71
2021/12/03 09:10:34;;;;;;;11.50;6.60;;;;;;;;;;5094346;28;20474;-72
2021/12/03 09:13:03;;;;;;;11.53;7.10;;;;;;;;;;5094064;28;20467;-71
2021/12/03 09:15:36;;;;;;;17.03;7.53;;;;;;;;;;5094193;28;20467;-71
2021/12/03 09:20:58;;;;;;;10.40;7.20;;;;;;;;;;5083307;28;20455;-71
2021/12/03 09:23:33;;;;;;;11.03;6.90;;;;;;;;;;5095722;28;20439;-71
2021/12/03 09:26:09;;;;;;;12.07;7.07;;;;;;;;;;5094662;28;20565;-71
2021/12/03 09:28:38;;;;;;;10.50;6.37;;;;;;;;;;5095563;28;20920;-71
2021/12/03 09:31:06;;;;;;;8.23;6.93;;;;;;;;;;5095016;28;20450;-71
2021/12/03 09:33:35;;;;;;;17.23;8.73;;;;;;;;;;5095420;28;20478;-71
2021/12/03 09:36:04;;;;;;;10.80;7.10;;;;;;;;;;5095558;28;20466;-71
2021/12/03 09:38:33;;;;;;;11.83;7.37;;;;;;;;;;5095270;28;20450;-71
2021/12/03 09:41:07;;;;;;;11.73;7.20;;;;;;;;;;5095213;28;20462;-71
2021/12/03 09:43:35;;;;;;;11.07;7.93;;;;;;;;;;5096266;28;20434;-71
2021/12/03 09:46:13;;;;;;;11.40;7.30;;;;;;;;;;5095392;28;20490;-71
2021/12/03 09:51:21;;;;;;;10.57;7.33;;;;;;;;;;5092267;28;20438;-71
2021/12/03 09:56:31;;;;;;;10.53;7.43;;;;;;;;;;5091859;28;20482;-71
2021/12/03 10:01:46;;;;;;;6.90;5.63;;;;;;;;;;5094529;28;20438;-71
2021/12/03 10:04:39;;;;;;;10.13;5.93;;;;;;;;;;5094921;28;20811;-71
2021/12/03 10:12:47;;;;;;;9.67;6.57;;;;;;;;;;5094750;28;20502;-72
2021/12/03 10:15:17;;;;;;;9.00;6.60;;;;;;;;;;5094649;28;20435;-71
2021/12/03 10:17:59;;;;;;;11.70;6.47;;;;;;;;;;5094290;28;20458;-71
2021/12/03 10:20:35;;;;;;;9.33;6.60;;;;;;;;;;5094501;28;20909;-71
2021/12/03 10:32:20;;;;;;;6.33;4.73;;;;;;;;;;5094632;28;20395;-71
2021/12/03 10:35:15;;;;;;;8.87;6.50;;;;;;;;;;5094410;28;20465;-71
2021/12/03 10:37:59;;;;;;;8.00;5.43;;;;;;;;;;5094289;28;20441;-72
2021/12/03 10:40:45;;;;;;;6.63;4.63;;;;;;;;;;5094308;28;20431;-72
2021/12/03 10:43:23;;;;;;;6.40;4.40;;;;;;;;;;5093865;28;20438;-72
2021/12/03 10:46:12;;;;;;;9.87;6.00;;;;;;;;;;5094042;28;20466;-72
2021/12/03 10:48:48;;;;;;;7.37;5.63;;;;;;;;;;5094184;28;20438;-71
2021/12/03 10:51:34;;;;;;;7.13;5.30;;;;;;;;;;5094937;28;20434;-71
2021/12/03 10:54:06;;;;;;;7.90;5.73;;;;;;;;;;5093768;28;20440;-71
2021/12/03 10:56:47;;;;;;;8.43;5.57;;;;;;;;;;5093617;28;20484;-72
2021/12/03 11:58:36;;;;;;;18.47;8.10;;;;;;;;;;5110588;28;20476;-72
2021/12/03 13:12:00;;;;;;;14.50;4.50;;;;;;;;;;5095677;28;20418;-71
2021/12/03 13:57:11;;;;;;;6.73;3.50;;;;;;;;;;5095043;28;20480;-71
2021/12/03 14:41:33;;;;;;;6.30;4.07;;;;;;;;;;5093697;28;20446;-71
2021/12/03 14:44:12;;;;;;;5.90;4.07;;;;;;;;;;5094141;28;20458;-72
2021/12/03 14:46:56;;;;;;;11.33;4.90;;;;;;;;;;5093890;28;20446;-72
2021/12/03 14:49:34;;;;;;;11.20;5.37;;;;;;;;;;5094108;28;20453;-71
2021/12/03 14:52:23;;;;;;;13.00;7.23;;;;;;;;;;5093963;28;20455;-72
2021/12/03 14:54:56;;;;;;;14.00;6.13;;;;;;;;;;5093901;28;20459;-71
2021/12/03 14:57:37;;;;;;;8.20;4.73;;;;;;;;;;5093627;28;20516;-71
2021/12/03 15:00:16;;;;;;;9.27;6.07;;;;;;;;;;5094001;28;20456;-71
2021/12/03 15:08:20;;;;;;;12.30;8.17;;;;;;;;;;5091703;28;20443;-72
2021/12/03 15:11:09;;;;;;;12.47;7.33;;;;;;;;;;5094058;28;20804;-73
2021/12/03 15:19:31;;;;;;;12.30;8.00;;;;;;;;;;5093366;28;20826;-71
2021/12/03 15:22:09;;;;;;;17.87;10.37;;;;;;;;;;5093495;28;20831;-71
2021/12/03 15:27:45;;;;;;;11.10;6.40;;;;;;;;;;5093386;28;20439;-72
2021/12/03 15:30:36;;;;;;;10.80;6.87;;;;;;;;;;5093582;28;20839;-71
2021/12/03 15:33:07;;;;;;;14.20;7.30;;;;;;;;;;5093471;28;21080;-71
2021/12/03 15:35:44;;;;;;;8.53;5.97;;;;;;;;;;5093706;28;20812;-71
2021/12/03 15:38:24;;;;;;;11.90;6.40;;;;;;;;;;5093285;28;20492;-71
2021/12/03 15:55:33;;;;;;;11.50;7.83;;;;;;;;;;5092335;28;20529;-71
2021/12/03 15:58:23;;;;;;;12.70;6.10;;;;;;;;;;5092844;28;20525;-71
2021/12/03 16:03:51;;;;;;;16.80;9.43;;;;;;;;;;5093258;28;20869;-71
2021/12/03 16:06:28;;;;;;;14.80;8.20;;;;;;;;;;5093319;28;20986;-71
2021/12/03 16:08:58;;;;;;;18.70;11.47;;;;;;;;;;5093236;28;20528;-71
2021/12/03 16:11:37;;;;;;;20.23;9.80;;;;;;;;;;5093089;28;20455;-71
2021/12/03 16:14:41;;;;;;;17.07;10.67;;;;;;;;;;5092901;28;20941;-71
2021/12/03 16:17:23;;;;;;;17.33;9.93;;;;;;;;;;5092530;28;20490;-71
2021/12/03 16:25:56;;;;;;;21.23;9.03;;;;;;;;;;5078628;28;20960;-71
2021/12/03 16:48:01;;;;;;;20.40;14.20;;;;;;;;;;5096149;28;20784;-71
2021/12/03 16:53:19;;;;;;;40.47;23.63;;;;;;;;;;5095839;28;20439;-71
2021/12/03 16:55:57;;;;;;;43.63;23.13;;;;;;;;;;5096141;28;20807;-71
2021/12/03 16:58:24;;;;;;;47.10;26.00;;;;;;;;;;5095709;28;20485;-71
2021/12/03 17:00:56;;;;;;;40.20;24.37;;;;;;;;;;5096047;28;20454;-71
2021/12/03 17:03:26;;;;;;;35.53;22.80;;;;;;;;;;5087601;28;20538;-73
2021/12/03 17:08:49;;;;;;;32.23;17.90;;;;;;;;;;5070762;28;20443;-71
2021/12/03 17:11:37;;;;;;;25.65;14.93;;;;;;;;;;5094201;28;20448;-71
2021/12/03 17:14:12;;;;;;;22.83;13.13;;;;;;;;;;5095659;28;20262;-71
2021/12/03 17:17:07;;;;;;;19.10;11.93;;;;;;;;;;5095201;28;20450;-71
2021/12/03 17:45:16;;;;;;;23.47;14.70;;;;;;;;;;5094871;28;20422;-72
2021/12/03 17:47:54;;;;;;;21.37;14.47;;;;;;;;;;5094832;28;20541;-71
2021/12/03 17:50:41;;;;;;;23.43;15.10;;;;;;;;;;5095163;28;20796;-71
2021/12/03 17:53:32;;;;;;;23.53;13.97;;;;;;;;;;5094614;28;20549;-71
2021/12/03 17:56:11;;;;;;;21.77;11.77;;;;;;;;;;5094689;28;20489;-71
2021/12/03 17:58:41;;;;;;;14.83;9.80;;;;;;;;;;5094557;28;20486;-72
2021/12/03 18:01:13;;;;;;;21.07;13.17;;;;;;;;;;5094712;28;20455;-71
2021/12/03 18:03:48;;;;;;;19.47;11.37;;;;;;;;;;5094732;28;20454;-71
2021/12/03 18:09:12;;;;;;;21.37;11.90;;;;;;;;;;5094690;28;20426;-71
2021/12/03 18:12:14;;;;;;;15.97;11.53;;;;;;;;;;5094512;28;20455;-71
2021/12/03 18:18:17;;;;;;;14.53;9.17;;;;;;;;;;5094538;28;20470;-71
2021/12/03 18:45:53;;;;;;;32.93;9.97;;;;;;;;;;5093550;28;20430;-71
2021/12/03 18:51:16;;;;;;;23.03;14.77;;;;;;;;;;5094031;28;20931;-71
2021/12/03 18:56:31;;;;;;;19.23;12.07;;;;;;;;;;5070844;28;20426;-71
2021/12/03 18:58:59;;;;;;;21.37;12.37;;;;;;;;;;5093388;28;20925;-72
2021/12/03 19:01:28;;;;;;;19.50;11.40;;;;;;;;;;5093771;28;20455;-71
2021/12/03 19:04:08;;;;;;;17.30;10.53;;;;;;;;;;5093676;28;20457;-72
2021/12/03 19:06:40;;;;;;;28.23;13.63;;;;;;;;;;5093532;28;20527;-73
2021/12/03 19:09:09;;;;;;;18.37;10.90;;;;;;;;;;5093389;28;20451;-72
2021/12/03 19:11:38;;;;;;;20.93;10.20;;;;;;;;;;5093627;28;20455;-71
2021/12/03 19:14:07;;;;;;;17.17;10.63;;;;;;;;;;5093385;28;20454;-71
2021/12/03 19:16:35;;;;;;;28.20;9.77;;;;;;;;;;5093269;28;20798;-72
2021/12/03 19:19:04;;;;;;;16.47;9.50;;;;;;;;;;5093204;28;20486;-71
2021/12/03 19:21:38;;;;;;;13.70;9.53;;;;;;;;;;5093493;28;20459;-71
2021/12/03 19:24:07;;;;;;;8.70;6.77;;;;;;;;;;5093249;28;20828;-71
2021/12/03 19:26:35;;;;;;;17.57;8.93;;;;;;;;;;5093245;28;20462;-73
2021/12/03 19:29:02;;;;;;;16.20;6.70;;;;;;;;;;5093046;28;20538;-71
2021/12/03 19:31:31;;;;;;;14.43;9.77;;;;;;;;;;5093245;28;20541;-71
2021/12/03 19:33:58;;;;;;;16.10;9.77;;;;;;;;;;5093002;28;20455;-71
2021/12/03 19:36:26;;;;;;;17.67;10.67;;;;;;;;;;5093509;28;20458;-71
2021/12/03 19:38:55;;;;;;;17.83;10.63;;;;;;;;;;5093081;28;20573;-71
2021/12/03 19:41:30;;;;;;;13.50;10.10;;;;;;;;;;5093218;28;20512;-71
2021/12/03 19:44:00;;;;;;;14.10;10.57;;;;;;;;;;5093024;28;20505;-72
2021/12/03 19:46:30;;;;;;;13.77;10.17;;;;;;;;;;5093517;28;20450;-71
2021/12/03 19:49:05;;;;;;;14.03;9.10;;;;;;;;;;5093347;28;20457;-71
2021/12/03 19:51:35;;;;;;;13.23;8.47;;;;;;;;;;5093186;28;20490;-71
2021/12/03 19:54:04;;;;;;;17.40;10.80;;;;;;;;;;5092734;28;20545;-71
2021/12/03 19:56:33;;;;;;;11.57;9.00;;;;;;;;;;5092940;28;20459;-71
2021/12/03 19:59:01;;;;;;;12.37;9.03;;;;;;;;;;5095268;28;20490;-71
2021/12/03 20:01:29;;;;;;;15.77;7.90;;;;;;;;;;5097277;28;20458;-71
2021/12/03 20:03:56;;;;;;;23.17;9.43;;;;;;;;;;5097179;28;20846;-72
2021/12/03 20:06:24;;;;;;;13.50;8.80;;;;;;;;;;5097086;28;20454;-71
2021/12/03 20:08:53;;;;;;;11.53;7.50;;;;;;;;;;5096686;28;20537;-72
2021/12/03 20:11:24;;;;;;;10.77;7.80;;;;;;;;;;5097046;28;20454;-72
2021/12/03 20:13:56;;;;;;;21.70;11.13;;;;;;;;;;5096675;28;20459;-72
2021/12/03 20:16:27;;;;;;;13.20;8.10;;;;;;;;;;5096678;28;20470;-71
2021/12/03 20:18:58;;;;;;;12.50;7.90;;;;;;;;;;5096332;28;20482;-71
2021/12/03 20:21:27;;;;;;;12.40;7.27;;;;;;;;;;5096727;28;20546;-71
2021/12/03 20:24:05;;;;;;;10.23;6.57;;;;;;;;;;5096335;28;20450;-72
2021/12/03 20:26:46;;;;;;;10.07;7.63;;;;;;;;;;5096624;28;20450;-71
2021/12/03 20:29:17;;;;;;;11.67;7.20;;;;;;;;;;5096263;28;20549;-71
2021/12/03 20:31:47;;;;;;;8.90;7.27;;;;;;;;;;5096737;28;20458;-71
2021/12/03 20:34:35;;;;;;;17.07;9.23;;;;;;;;;;5096300;28;20861;-71
2021/12/03 20:37:05;;;;;;;24.57;10.93;;;;;;;;;;5095836;28;20476;-71
2021/12/03 20:39:35;;;;;;;9.07;7.20;;;;;;;;;;5096331;28;20574;-71
2021/12/03 20:42:06;;;;;;;10.67;6.63;;;;;;;;;;5096147;28;20537;-71
2021/12/03 20:44:50;;;;;;;14.20;7.97;;;;;;;;;;5096132;28;20462;-72
2021/12/03 20:50:12;;;;;;;10.53;6.93;;;;;;;;;;5096092;28;20789;-72
2021/12/03 20:52:50;;;;;;;8.40;6.23;;;;;;;;;;5096031;28;21026;-71
2021/12/03 21:09:12;;;;;;;5.37;3.97;;;;;;;;;;5089662;28;21051;-70